sensor_id;sensor_type;location;lat;lon;timestamp;pressure;altitude;pressure_sealevel;temperature;humidity
23953;BME280;12163;49.316;6.092;2023-02-13T00:00:16;101345.44;;;6.48;85.30
23953;BME280;12163;49.316;6.092;2023-02-13T00:02:43;101341.53;;;6.50;85.02
23953;BME280;12163;49.316;6.092;2023-02-13T00:05:10;101331.59;;;6.51;84.71
23953;BME280;12163;49.316;6.092;2023-02-13T00:07:37;101337.56;;;6.53;84.93
23953;BME280;12163;49.316;6.092;2023-02-13T00:10:04;101333.66;;;6.55;84.91
23953;BME280;12163;49.316;6.092;2023-02-13T00:12:30;101336.94;;;6.57;84.60
23953;BME280;12163;49.316;6.092;2023-02-13T00:14:57;101339.41;;;6.59;84.60
23953;BME280;12163;49.316;6.092;2023-02-13T00:17:24;101336.50;;;6.60;84.78
23953;BME280;12163;49.316;6.092;2023-02-13T00:19:51;101330.94;;;6.62;84.55
23953;BME280;12163;49.316;6.092;2023-02-13T00:22:18;101334.66;;;6.61;84.07
23953;BME280;12163;49.316;6.092;2023-02-13T00:24:44;101329.47;;;6.59;84.13
23953;BME280;12163;49.316;6.092;2023-02-13T00:27:11;101328.69;;;6.59;84.04
23953;BME280;12163;49.316;6.092;2023-02-13T00:29:38;101329.91;;;6.56;83.83
23953;BME280;12163;49.316;6.092;2023-02-13T00:32:05;101333.66;;;6.55;83.48
23953;BME280;12163;49.316;6.092;2023-02-13T00:34:32;101332.88;;;6.48;82.96
23953;BME280;12163;49.316;6.092;2023-02-13T00:36:58;101335.78;;;6.40;83.25
23953;BME280;12163;49.316;6.092;2023-02-13T00:39:25;101338.13;;;6.30;82.87
23953;BME280;12163;49.316;6.092;2023-02-13T00:41:52;101338.78;;;6.19;82.38
23953;BME280;12163;49.316;6.092;2023-02-13T00:44:18;101335.94;;;6.08;82.52
23953;BME280;12163;49.316;6.092;2023-02-13T00:46:45;101331.47;;;5.95;82.85
23953;BME280;12163;49.316;6.092;2023-02-13T00:49:11;101331.72;;;5.87;82.84
23953;BME280;12163;49.316;6.092;2023-02-13T00:51:38;101326.97;;;5.83;83.13
23953;BME280;12163;49.316;6.092;2023-02-13T00:54:05;101322.44;;;5.77;83.08
23953;BME280;12163;49.316;6.092;2023-02-13T00:56:32;101329.03;;;5.74;83.08
23953;BME280;12163;49.316;6.092;2023-02-13T00:58:58;101330.72;;;5.69;82.86
23953;BME280;12163;49.316;6.092;2023-02-13T01:01:25;101327.44;;;5.67;83.61
23953;BME280;12163;49.316;6.092;2023-02-13T01:03:51;101329.88;;;5.68;83.81
23953;BME280;12163;49.316;6.092;2023-02-13T01:06:18;101330.31;;;5.65;83.47
23953;BME280;12163;49.316;6.092;2023-02-13T01:08:45;101331.75;;;5.61;84.00
23953;BME280;12163;49.316;6.092;2023-02-13T01:11:11;101336.50;;;5.59;83.94
23953;BME280;12163;49.316;6.092;2023-02-13T01:13:38;101331.97;;;5.60;84.50
23953;BME280;12163;49.316;6.092;2023-02-13T01:16:05;101327.63;;;5.59;84.35
23953;BME280;12163;49.316;6.092;2023-02-13T01:18:32;101327.63;;;5.59;84.50
23953;BME280;12163;49.316;6.092;2023-02-13T01:21:04;101320.88;;;5.56;84.32
23953;BME280;12163;49.316;6.092;2023-02-13T01:23:34;101329.94;;;5.55;84.49
23953;BME280;12163;49.316;6.092;2023-02-13T01:26:06;101332.38;;;5.50;84.73
23953;BME280;12163;49.316;6.092;2023-02-13T01:28:33;101325.00;;;5.39;83.90
23953;BME280;12163;49.316;6.092;2023-02-13T01:30:59;101323.38;;;5.38;84.34
23953;BME280;12163;49.316;6.092;2023-02-13T01:33:27;101332.19;;;5.39;84.54
23953;BME280;12163;49.316;6.092;2023-02-13T01:35:55;101320.69;;;5.38;84.62
23953;BME280;12163;49.316;6.092;2023-02-13T01:38:21;101328.72;;;5.38;85.57
23953;BME280;12163;49.316;6.092;2023-02-13T01:40:51;101323.97;;;5.40;85.66
23953;BME280;12163;49.316;6.092;2023-02-13T01:43:19;101338.16;;;5.41;85.40
23953;BME280;12163;49.316;6.092;2023-02-13T01:45:52;101339.44;;;5.38;85.54
23953;BME280;12163;49.316;6.092;2023-02-13T01:48:24;101324.81;;;5.34;85.59
23953;BME280;12163;49.316;6.092;2023-02-13T01:50:59;101327.88;;;5.31;85.39
23953;BME280;12163;49.316;6.092;2023-02-13T01:53:41;101332.00;;;5.27;85.67
23953;BME280;12163;49.316;6.092;2023-02-13T01:56:14;101325.25;;;5.25;85.14
23953;BME280;12163;49.316;6.092;2023-02-13T01:58:45;101328.09;;;5.23;85.35
23953;BME280;12163;49.316;6.092;2023-02-13T02:01:12;101323.59;;;5.24;85.46
23953;BME280;12163;49.316;6.092;2023-02-13T02:03:42;101323.78;;;5.22;85.87
23953;BME280;12163;49.316;6.092;2023-02-13T02:06:15;101332.84;;;5.21;85.78
23953;BME280;12163;49.316;6.092;2023-02-13T02:08:46;101333.69;;;5.22;85.84
23953;BME280;12163;49.316;6.092;2023-02-13T02:11:19;101326.47;;;5.22;85.70
23953;BME280;12163;49.316;6.092;2023-02-13T02:13:48;101336.56;;;5.20;85.41
23953;BME280;12163;49.316;6.092;2023-02-13T02:16:15;101332.44;;;5.18;86.00
23953;BME280;12163;49.316;6.092;2023-02-13T02:18:42;101321.34;;;5.14;86.00
23953;BME280;12163;49.316;6.092;2023-02-13T02:33:11;101329.97;;;4.91;85.47
23953;BME280;12163;49.316;6.092;2023-02-13T02:38:48;101319.28;;;4.78;85.64
23953;BME280;12163;49.316;6.092;2023-02-13T02:41:23;101315.75;;;4.77;85.99
23953;BME280;12163;49.316;6.092;2023-02-13T02:44:44;101318.44;;;4.71;86.40
23953;BME280;12163;49.316;6.092;2023-02-13T02:47:31;101319.69;;;4.75;86.89
23953;BME280;12163;49.316;6.092;2023-02-13T02:50:39;101315.56;;;4.79;86.60
23953;BME280;12163;49.316;6.092;2023-02-13T02:53:31;101313.91;;;4.78;86.79
23953;BME280;12163;49.316;6.092;2023-02-13T02:56:06;101303.41;;;4.83;86.75
23953;BME280;12163;49.316;6.092;2023-02-13T02:58:53;101314.13;;;4.83;86.84
23953;BME280;12163;49.316;6.092;2023-02-13T03:01:40;101314.13;;;4.95;87.32
23953;BME280;12163;49.316;6.092;2023-02-13T03:07:23;101314.13;;;5.08;87.58
23953;BME280;12163;49.316;6.092;2023-02-13T03:09:52;101326.28;;;5.11;87.42
23953;BME280;12163;49.316;6.092;2023-02-13T03:12:53;101321.75;;;5.11;87.88
23953;BME280;12163;49.316;6.092;2023-02-13T03:15:41;101315.97;;;5.14;87.79
23953;BME280;12163;49.316;6.092;2023-02-13T03:18:33;101322.56;;;5.12;87.32
23953;BME280;12163;49.316;6.092;2023-02-13T03:21:47;101324.19;;;5.06;87.48
23953;BME280;12163;49.316;6.092;2023-02-13T03:41:52;101328.31;;;4.77;87.29
23953;BME280;12163;49.316;6.092;2023-02-13T03:46:56;101327.69;;;4.75;87.51
23953;BME280;12163;49.316;6.092;2023-02-13T03:49:32;101321.31;;;4.76;87.39
23953;BME280;12163;49.316;6.092;2023-02-13T03:55:21;101319.69;;;4.75;88.13
23953;BME280;12163;49.316;6.092;2023-02-13T03:58:21;101318.03;;;4.74;87.88
23953;BME280;12163;49.316;6.092;2023-02-13T04:01:09;101324.00;;;4.76;87.96
23953;BME280;12163;49.316;6.092;2023-02-13T04:03:51;101323.16;;;4.75;88.46
23953;BME280;12163;49.316;6.092;2023-02-13T04:06:28;101324.00;;;4.76;88.50
23953;BME280;12163;49.316;6.092;2023-02-13T04:08:57;101324.19;;;4.81;88.11
23953;BME280;12163;49.316;6.092;2023-02-13T04:11:52;101318.66;;;4.76;88.08
23953;BME280;12163;49.316;6.092;2023-02-13T04:14:24;101321.31;;;4.76;87.88
23953;BME280;12163;49.316;6.092;2023-02-13T04:17:03;101328.72;;;4.74;88.00
23953;BME280;12163;49.316;6.092;2023-02-13T04:19:31;101323.38;;;4.74;87.91
23953;BME280;12163;49.316;6.092;2023-02-13T04:21:59;101330.78;;;4.72;88.09
23953;BME280;12163;49.316;6.092;2023-02-13T04:24:27;101326.47;;;4.71;88.78
23953;BME280;12163;49.316;6.092;2023-02-13T04:26:54;101329.16;;;4.71;88.57
23953;BME280;12163;49.316;6.092;2023-02-13T04:29:22;101329.16;;;4.71;88.54
23953;BME280;12163;49.316;6.092;2023-02-13T04:31:49;101334.50;;;4.71;88.24
23953;BME280;12163;49.316;6.092;2023-02-13T04:34:16;101334.50;;;4.71;88.44
23953;BME280;12163;49.316;6.092;2023-02-13T04:36:43;101333.66;;;4.70;88.36
23953;BME280;12163;49.316;6.092;2023-02-13T04:39:10;101335.72;;;4.75;88.66
23953;BME280;12163;49.316;6.092;2023-02-13T04:41:37;101336.53;;;4.75;88.49
23953;BME280;12163;49.316;6.092;2023-02-13T04:44:03;101344.19;;;4.78;88.28
23953;BME280;12163;49.316;6.092;2023-02-13T04:46:30;101341.28;;;4.80;88.67
23953;BME280;12163;49.316;6.092;2023-02-13T04:48:57;101342.72;;;4.82;88.72
23953;BME280;12163;49.316;6.092;2023-02-13T04:51:23;101341.47;;;4.85;88.75
23953;BME280;12163;49.316;6.092;2023-02-13T04:53:50;101342.31;;;4.85;88.81
23953;BME280;12163;49.316;6.092;2023-02-13T04:56:16;101337.78;;;4.86;89.06
23953;BME280;12163;49.316;6.092;2023-02-13T04:58:45;101342.09;;;4.87;88.66
23953;BME280;12163;49.316;6.092;2023-02-13T05:01:13;101341.06;;;4.88;88.94
23953;BME280;12163;49.316;6.092;2023-02-13T05:03:40;101333.03;;;4.88;88.28
23953;BME280;12163;49.316;6.092;2023-02-13T05:06:06;101339.41;;;4.87;88.31
23953;BME280;12163;49.316;6.092;2023-02-13T05:08:34;101335.09;;;4.86;88.15
23953;BME280;12163;49.316;6.092;2023-02-13T05:11:00;101334.50;;;4.84;87.97
23953;BME280;12163;49.316;6.092;2023-02-13T05:13:27;101333.06;;;4.81;88.04
23953;BME280;12163;49.316;6.092;2023-02-13T05:15:54;101333.88;;;4.82;88.40
23953;BME280;12163;49.316;6.092;2023-02-13T05:18:20;101331.19;;;4.82;88.04
23953;BME280;12163;49.316;6.092;2023-02-13T05:20:47;101348.09;;;4.82;87.86
23953;BME280;12163;49.316;6.092;2023-02-13T05:23:34;101339.63;;;4.79;88.40
23953;BME280;12163;49.316;6.092;2023-02-13T05:26:00;101349.91;;;4.75;87.93
23953;BME280;12163;49.316;6.092;2023-02-13T05:28:27;101343.94;;;4.73;88.42
23953;BME280;12163;49.316;6.092;2023-02-13T05:31:12;101341.06;;;4.75;88.18
23953;BME280;12163;49.316;6.092;2023-02-13T05:33:39;101341.06;;;4.75;88.43
23953;BME280;12163;49.316;6.092;2023-02-13T05:36:06;101351.78;;;4.75;87.89
23953;BME280;12163;49.316;6.092;2023-02-13T05:38:33;101347.44;;;4.74;88.14
23953;BME280;12163;49.316;6.092;2023-02-13T05:41:01;101350.13;;;4.74;88.35
23953;BME280;12163;49.316;6.092;2023-02-13T05:43:28;101346.84;;;4.72;87.72
23953;BME280;12163;49.316;6.092;2023-02-13T05:46:06;101350.94;;;4.68;87.70
23953;BME280;12163;49.316;6.092;2023-02-13T05:48:33;101344.94;;;4.66;88.13
23953;BME280;12163;49.316;6.092;2023-02-13T05:51:00;101347.63;;;4.66;87.96
23953;BME280;12163;49.316;6.092;2023-02-13T05:53:27;101347.63;;;4.66;88.43
23953;BME280;12163;49.316;6.092;2023-02-13T05:55:55;101347.63;;;4.66;88.05
23953;BME280;12163;49.316;6.092;2023-02-13T05:58:22;101340.25;;;4.68;88.53
23953;BME280;12163;49.316;6.092;2023-02-13T06:00:48;101343.16;;;5.11;90.07
23953;BME280;12163;49.316;6.092;2023-02-13T06:03:15;101343.44;;;5.93;91.13
23953;BME280;12163;49.316;6.092;2023-02-13T06:05:42;101337.19;;;6.80;91.31
23953;BME280;12163;49.316;6.092;2023-02-13T06:08:09;101328.53;;;7.51;89.10
23953;BME280;12163;49.316;6.092;2023-02-13T06:10:35;101322.47;;;7.92;86.06
23953;BME280;12163;49.316;6.092;2023-02-13T06:13:02;101320.53;;;7.99;83.30
23953;BME280;12163;49.316;6.092;2023-02-13T06:15:28;101323.53;;;7.91;81.40
23953;BME280;12163;49.316;6.092;2023-02-13T06:17:55;101325.69;;;7.64;79.57
23953;BME280;12163;49.316;6.092;2023-02-13T06:20:22;101325.59;;;7.35;79.70
23953;BME280;12163;49.316;6.092;2023-02-13T06:22:49;101323.56;;;7.06;79.02
23953;BME280;12163;49.316;6.092;2023-02-13T06:25:16;101326.13;;;6.70;79.09
23953;BME280;12163;49.316;6.092;2023-02-13T06:27:43;101332.72;;;6.37;79.04
23953;BME280;12163;49.316;6.092;2023-02-13T06:30:10;101335.13;;;6.14;79.58
23953;BME280;12163;49.316;6.092;2023-02-13T06:32:37;101339.31;;;5.97;80.35
23953;BME280;12163;49.316;6.092;2023-02-13T06:35:04;101350.72;;;5.79;80.56
23953;BME280;12163;49.316;6.092;2023-02-13T06:37:31;101343.69;;;5.65;80.73
23953;BME280;12163;49.316;6.092;2023-02-13T06:39:58;101346.81;;;5.49;81.30
23953;BME280;12163;49.316;6.092;2023-02-13T06:42:25;101346.44;;;5.39;81.26
23953;BME280;12163;49.316;6.092;2023-02-13T06:44:51;101357.75;;;5.28;81.36
23953;BME280;12163;49.316;6.092;2023-02-13T06:47:18;101360.03;;;5.18;81.88
23953;BME280;12163;49.316;6.092;2023-02-13T06:49:45;101359.22;;;5.11;81.90
23953;BME280;12163;49.316;6.092;2023-02-13T06:52:11;101357.97;;;5.07;82.26
23953;BME280;12163;49.316;6.092;2023-02-13T06:54:38;101363.09;;;5.02;82.61
23953;BME280;12163;49.316;6.092;2023-02-13T06:57:13;101362.06;;;4.97;82.52
23953;BME280;12163;49.316;6.092;2023-02-13T06:59:39;101362.28;;;4.95;82.82
23953;BME280;12163;49.316;6.092;2023-02-13T07:02:11;101358.16;;;4.93;83.20
23953;BME280;12163;49.316;6.092;2023-02-13T07:04:38;101373.41;;;4.93;83.68
23953;BME280;12163;49.316;6.092;2023-02-13T07:07:05;101369.50;;;4.89;83.11
23953;BME280;12163;49.316;6.092;2023-02-13T07:09:32;101365.97;;;4.82;82.94
23953;BME280;12163;49.316;6.092;2023-02-13T07:12:02;101367.81;;;4.75;83.62
23953;BME280;12163;49.316;6.092;2023-02-13T07:14:29;101375.22;;;4.73;83.51
23953;BME280;12163;49.316;6.092;2023-02-13T07:16:56;101367.81;;;4.68;83.39
23953;BME280;12163;49.316;6.092;2023-02-13T07:19:23;101370.25;;;4.57;83.19
23953;BME280;12163;49.316;6.092;2023-02-13T07:21:49;101375.53;;;4.44;83.00
23953;BME280;12163;49.316;6.092;2023-02-13T07:24:16;101381.88;;;4.30;83.00
23953;BME280;12163;49.316;6.092;2023-02-13T07:26:43;101376.47;;;4.17;82.76
23953;BME280;12163;49.316;6.092;2023-02-13T07:29:09;101389.41;;;4.07;82.56
23953;BME280;12163;49.316;6.092;2023-02-13T07:31:38;101380.53;;;4.00;83.24
23953;BME280;12163;49.316;6.092;2023-02-13T07:34:05;101386.25;;;3.97;83.33
23953;BME280;12163;49.316;6.092;2023-02-13T07:36:32;101386.47;;;3.95;83.62
23953;BME280;12163;49.316;6.092;2023-02-13T07:38:59;101386.25;;;3.97;83.63
23953;BME280;12163;49.316;6.092;2023-02-13T07:41:25;101384.19;;;3.99;83.90
23953;BME280;12163;49.316;6.092;2023-02-13T07:43:53;101383.00;;;4.01;83.71
23953;BME280;12163;49.316;6.092;2023-02-13T07:46:20;101375.41;;;4.05;84.24
23953;BME280;12163;49.316;6.092;2023-02-13T07:48:46;101383.66;;;4.10;84.21
23953;BME280;12163;49.316;6.092;2023-02-13T07:51:13;101391.88;;;4.15;84.54
23953;BME280;12163;49.316;6.092;2023-02-13T07:53:40;101390.09;;;4.22;84.43
23953;BME280;12163;49.316;6.092;2023-02-13T07:56:07;101390.31;;;4.27;84.22
23953;BME280;12163;49.316;6.092;2023-02-13T07:58:35;101397.31;;;4.28;84.46
23953;BME280;12163;49.316;6.092;2023-02-13T08:01:07;101395.66;;;4.27;83.84
23953;BME280;12163;49.316;6.092;2023-02-13T08:03:35;101384.56;;;4.30;84.27
23953;BME280;12163;49.316;6.092;2023-02-13T08:06:02;101391.56;;;4.31;84.09
23953;BME280;12163;49.316;6.092;2023-02-13T08:08:29;101384.78;;;4.35;84.13
23953;BME280;12163;49.316;6.092;2023-02-13T08:10:56;101381.69;;;4.38;84.42
23953;BME280;12163;49.316;6.092;2023-02-13T08:13:42;101390.59;;;4.45;84.16
23953;BME280;12163;49.316;6.092;2023-02-13T08:16:09;101390.81;;;4.50;84.34
23953;BME280;12163;49.316;6.092;2023-02-13T08:18:36;101394.13;;;4.58;84.57
23953;BME280;12163;49.316;6.092;2023-02-13T08:21:03;101387.97;;;4.64;84.68
23953;BME280;12163;49.316;6.092;2023-02-13T08:23:30;101384.47;;;4.70;84.32
23953;BME280;12163;49.316;6.092;2023-02-13T08:26:00;101392.50;;;4.77;84.59
23953;BME280;12163;49.316;6.092;2023-02-13T08:28:30;101395.19;;;4.83;84.77
23953;BME280;12163;49.316;6.092;2023-02-13T08:30:57;101388.22;;;4.89;84.33
23953;BME280;12163;49.316;6.092;2023-02-13T08:33:24;101391.72;;;4.95;83.84
23953;BME280;12163;49.316;6.092;2023-02-13T08:35:50;101392.53;;;5.02;84.09
23953;BME280;12163;49.316;6.092;2023-02-13T08:38:17;101400.38;;;5.10;83.95
23953;BME280;12163;49.316;6.092;2023-02-13T08:40:43;101400.78;;;5.20;84.00
23953;BME280;12163;49.316;6.092;2023-02-13T08:43:10;101409.84;;;5.32;83.96
23953;BME280;12163;49.316;6.092;2023-02-13T08:45:36;101395.00;;;5.43;84.28
23953;BME280;12163;49.316;6.092;2023-02-13T08:48:03;101396.22;;;5.53;84.05
23953;BME280;12163;49.316;6.092;2023-02-13T08:50:30;101394.59;;;5.65;83.67
23953;BME280;12163;49.316;6.092;2023-02-13T08:52:57;101398.47;;;5.76;84.04
23953;BME280;12163;49.316;6.092;2023-02-13T08:55:25;101400.75;;;5.85;83.43
23953;BME280;12163;49.316;6.092;2023-02-13T08:57:52;101405.69;;;5.95;83.33
23953;BME280;12163;49.316;6.092;2023-02-13T09:00:19;101402.75;;;6.03;83.01
23953;BME280;12163;49.316;6.092;2023-02-13T09:02:46;101396.16;;;6.12;83.16
23953;BME280;12163;49.316;6.092;2023-02-13T09:05:12;101401.47;;;6.18;82.51
23953;BME280;12163;49.316;6.092;2023-02-13T09:07:39;101399.00;;;6.23;82.41
23953;BME280;12163;49.316;6.092;2023-02-13T09:10:06;101390.09;;;6.29;81.90
23953;BME280;12163;49.316;6.092;2023-02-13T09:12:33;101396.03;;;6.38;81.97
23953;BME280;12163;49.316;6.092;2023-02-13T09:14:59;101387.53;;;6.47;81.42
23953;BME280;12163;49.316;6.092;2023-02-13T09:17:26;101390.56;;;6.57;81.45
23953;BME280;12163;49.316;6.092;2023-02-13T09:19:52;101388.28;;;6.61;81.05
23953;BME280;12163;49.316;6.092;2023-02-13T09:22:19;101395.47;;;6.66;80.35
23953;BME280;12163;49.316;6.092;2023-02-13T09:24:45;101391.72;;;6.74;80.57
23953;BME280;12163;49.316;6.092;2023-02-13T09:27:12;101383.84;;;6.79;79.99
23953;BME280;12163;49.316;6.092;2023-02-13T09:29:39;101392.66;;;6.86;79.59
23953;BME280;12163;49.316;6.092;2023-02-13T09:32:05;101393.91;;;6.90;79.29
23953;BME280;12163;49.316;6.092;2023-02-13T09:34:32;101382.72;;;6.93;79.14
23953;BME280;12163;49.316;6.092;2023-02-13T09:36:59;101387.41;;;6.97;78.74
23953;BME280;12163;49.316;6.092;2023-02-13T09:39:25;101389.03;;;7.05;78.89
23953;BME280;12163;49.316;6.092;2023-02-13T09:41:52;101388.53;;;7.14;78.71
23953;BME280;12163;49.316;6.092;2023-02-13T09:44:38;101388.28;;;7.22;78.13
23953;BME280;12163;49.316;6.092;2023-02-13T09:47:33;101388.16;;;7.35;78.21
23953;BME280;12163;49.316;6.092;2023-02-13T09:52:43;101381.94;;;7.59;77.56
23953;BME280;12163;49.316;6.092;2023-02-13T09:55:22;101392.63;;;7.66;77.00
23953;BME280;12163;49.316;6.092;2023-02-13T09:58:17;101391.81;;;7.65;76.65
23953;BME280;12163;49.316;6.092;2023-02-13T10:00:53;101399.00;;;7.71;76.12
23953;BME280;12163;49.316;6.092;2023-02-13T10:03:33;101390.88;;;7.78;76.16
23953;BME280;12163;49.316;6.092;2023-02-13T10:06:21;101391.19;;;7.88;75.90
23953;BME280;12163;49.316;6.092;2023-02-13T10:11:35;101398.47;;;7.99;75.02
23953;BME280;12163;49.316;6.092;2023-02-13T10:16:50;101406.72;;;8.04;73.86
23953;BME280;12163;49.316;6.092;2023-02-13T10:19:33;101399.69;;;8.03;74.07
23953;BME280;12163;49.316;6.092;2023-02-13T10:22:14;101392.09;;;8.00;73.98
23953;BME280;12163;49.316;6.092;2023-02-13T10:36:03;101394.97;;;8.23;73.19
23953;BME280;12163;49.316;6.092;2023-02-13T10:38:34;101393.47;;;8.27;72.63
23953;BME280;12163;49.316;6.092;2023-02-13T10:41:10;101392.94;;;8.36;72.80
23953;BME280;12163;49.316;6.092;2023-02-13T10:53:02;101387.97;;;8.80;71.97
23953;BME280;12163;49.316;6.092;2023-02-13T11:03:28;101380.25;;;9.36;70.60
23953;BME280;12163;49.316;6.092;2023-02-13T11:05:57;101373.09;;;9.53;70.05
23953;BME280;12163;49.316;6.092;2023-02-13T11:08:39;101368.44;;;9.60;69.44
23953;BME280;12163;49.316;6.092;2023-02-13T11:11:32;101362.44;;;9.58;68.77
23953;BME280;12163;49.316;6.092;2023-02-13T11:19:50;101362.78;;;9.50;68.22
23953;BME280;12163;49.316;6.092;2023-02-13T11:22:28;101363.25;;;9.47;68.75
23953;BME280;12163;49.316;6.092;2023-02-13T11:25:19;101362.19;;;9.60;68.68
23953;BME280;12163;49.316;6.092;2023-02-13T11:27:45;101350.03;;;9.69;68.23
23953;BME280;12163;49.316;6.092;2023-02-13T11:33:00;101354.09;;;9.83;68.03
23953;BME280;12163;49.316;6.092;2023-02-13T11:35:31;101351.84;;;9.91;67.99
23953;BME280;12163;49.316;6.092;2023-02-13T11:40:42;101359.34;;;10.12;66.92
23953;BME280;12163;49.316;6.092;2023-02-13T11:43:26;101356.75;;;10.17;66.81
23953;BME280;12163;49.316;6.092;2023-02-13T11:48:34;101351.19;;;10.35;66.75
23953;BME280;12163;49.316;6.092;2023-02-13T11:51:01;101344.03;;;10.40;66.43
23953;BME280;12163;49.316;6.092;2023-02-13T11:53:31;101345.03;;;10.51;66.69
23953;BME280;12163;49.316;6.092;2023-02-13T11:56:09;101340.28;;;10.58;65.40
23953;BME280;12163;49.316;6.092;2023-02-13T11:58:36;101325.25;;;10.62;65.91
23953;BME280;12163;49.316;6.092;2023-02-13T12:01:24;101336.75;;;10.69;65.77
23953;BME280;12163;49.316;6.092;2023-02-13T12:04:02;101330.22;;;10.81;65.28
23953;BME280;12163;49.316;6.092;2023-02-13T12:06:31;101339.41;;;10.97;64.90
23953;BME280;12163;49.316;6.092;2023-02-13T12:09:11;101329.91;;;11.11;64.45
23953;BME280;12163;49.316;6.092;2023-02-13T12:11:51;101334.34;;;11.17;63.67
23953;BME280;12163;49.316;6.092;2023-02-13T12:14:21;101319.31;;;11.26;64.11
23953;BME280;12163;49.316;6.092;2023-02-13T12:17:04;101321.53;;;11.29;63.91
23953;BME280;12163;49.316;6.092;2023-02-13T12:19:39;101320.31;;;11.36;63.86
23953;BME280;12163;49.316;6.092;2023-02-13T12:22:37;101320.63;;;11.40;63.37
23953;BME280;12163;49.316;6.092;2023-02-13T12:25:41;101310.47;;;11.47;62.94
23953;BME280;12163;49.316;6.092;2023-02-13T12:28:14;101302.53;;;11.57;63.25
23953;BME280;12163;49.316;6.092;2023-02-13T12:36:20;101300.88;;;11.72;62.18
23953;BME280;12163;49.316;6.092;2023-02-13T12:39:22;101305.59;;;11.81;61.75
23953;BME280;12163;49.316;6.092;2023-02-13T12:44:49;101283.88;;;11.98;61.35
23953;BME280;12163;49.316;6.092;2023-02-13T12:47:26;101292.88;;;12.03;61.54
23953;BME280;12163;49.316;6.092;2023-02-13T12:52:47;101280.09;;;11.99;60.70
23953;BME280;12163;49.316;6.092;2023-02-13T13:09:52;101263.19;;;12.35;60.50
23953;BME280;12163;49.316;6.092;2023-02-13T13:15:19;101253.28;;;12.45;59.42
23953;BME280;12163;49.316;6.092;2023-02-13T13:21:17;101253.97;;;12.62;58.88
23953;BME280;12163;49.316;6.092;2023-02-13T13:28:54;101234.34;;;12.77;58.40
23953;BME280;12163;49.316;6.092;2023-02-13T13:31:22;101231.69;;;12.82;58.15
23953;BME280;12163;49.316;6.092;2023-02-13T13:33:54;101232.06;;;12.95;58.56
23953;BME280;12163;49.316;6.092;2023-02-13T13:47:36;101224.59;;;14.25;55.79
23953;BME280;12163;49.316;6.092;2023-02-13T13:50:05;101220.28;;;14.64;53.39
23953;BME280;12163;49.316;6.092;2023-02-13T13:53:04;101216.19;;;14.91;53.28
23953;BME280;12163;49.316;6.092;2023-02-13T13:58:25;101207.13;;;15.55;51.36
23953;BME280;12163;49.316;6.092;2023-02-13T14:01:22;101203.72;;;15.88;49.74
23953;BME280;12163;49.316;6.092;2023-02-13T14:03:50;101197.81;;;16.20;49.28
23953;BME280;12163;49.316;6.092;2023-02-13T14:06:20;101196.03;;;16.44;48.22
23953;BME280;12163;49.316;6.092;2023-02-13T14:16:57;101203.69;;;17.37;44.95
23953;BME280;12163;49.316;6.092;2023-02-13T14:19:40;101200.88;;;17.42;46.35
23953;BME280;12163;49.316;6.092;2023-02-13T14:24:54;101191.25;;;17.91;43.92
23953;BME280;12163;49.316;6.092;2023-02-13T14:30:00;101188.63;;;18.42;43.02
23953;BME280;12163;49.316;6.092;2023-02-13T14:34:59;101181.19;;;18.61;42.42
23953;BME280;12163;49.316;6.092;2023-02-13T14:37:37;101187.13;;;18.68;42.15
23953;BME280;12163;49.316;6.092;2023-02-13T14:42:50;101188.56;;;18.78;41.63
23953;BME280;12163;49.316;6.092;2023-02-13T14:45:23;101179.59;;;18.91;41.80
23953;BME280;12163;49.316;6.092;2023-02-13T14:47:54;101181.50;;;18.91;41.18
23953;BME280;12163;49.316;6.092;2023-02-13T14:50:30;101177.75;;;18.87;41.02
23953;BME280;12163;49.316;6.092;2023-02-13T14:52:59;101175.75;;;18.92;41.30
23953;BME280;12163;49.316;6.092;2023-02-13T14:55:39;101168.44;;;19.01;41.68
23953;BME280;12163;49.316;6.092;2023-02-13T14:58:15;101174.47;;;19.17;40.93
23953;BME280;12163;49.316;6.092;2023-02-13T15:00:52;101164.03;;;19.19;40.66
23953;BME280;12163;49.316;6.092;2023-02-13T15:03:57;101170.56;;;19.23;40.71
23953;BME280;12163;49.316;6.092;2023-02-13T15:06:31;101170.63;;;19.18;41.11
23953;BME280;12163;49.316;6.092;2023-02-13T15:09:02;101171.03;;;19.11;41.00
23953;BME280;12163;49.316;6.092;2023-02-13T15:11:41;101166.72;;;18.92;41.17
23953;BME280;12163;49.316;6.092;2023-02-13T15:16:47;101166.19;;;18.45;42.11
23953;BME280;12163;49.316;6.092;2023-02-13T15:19:18;101169.41;;;18.10;41.90
23953;BME280;12163;49.316;6.092;2023-02-13T15:21:51;101169.41;;;17.49;43.48
23953;BME280;12163;49.316;6.092;2023-02-13T15:24:20;101170.88;;;16.85;44.11
23953;BME280;12163;49.316;6.092;2023-02-13T15:32:37;101175.19;;;14.73;48.28
23953;BME280;12163;49.316;6.092;2023-02-13T15:35:29;101174.09;;;14.29;49.51
23953;BME280;12163;49.316;6.092;2023-02-13T15:37:57;101172.91;;;13.95;50.45
23953;BME280;12163;49.316;6.092;2023-02-13T15:40:32;101182.28;;;13.62;51.42
23953;BME280;12163;49.316;6.092;2023-02-13T15:43:02;101184.06;;;13.32;51.85
23953;BME280;12163;49.316;6.092;2023-02-13T15:45:29;101174.66;;;13.03;52.82
23953;BME280;12163;49.316;6.092;2023-02-13T15:47:56;101176.94;;;12.80;53.75
23953;BME280;12163;49.316;6.092;2023-02-13T15:52:50;101181.75;;;12.41;55.37
23953;BME280;12163;49.316;6.092;2023-02-13T15:55:19;101184.34;;;12.26;55.89
23953;BME280;12163;49.316;6.092;2023-02-13T15:57:46;101179.31;;;12.13;56.65
23953;BME280;12163;49.316;6.092;2023-02-13T16:00:25;101179.75;;;12.00;56.85
23953;BME280;12163;49.316;6.092;2023-02-13T16:02:54;101175.84;;;11.91;57.22
23953;BME280;12163;49.316;6.092;2023-02-13T16:05:23;101175.75;;;11.81;57.71
23953;BME280;12163;49.316;6.092;2023-02-13T16:08:25;101180.94;;;11.62;58.96
23953;BME280;12163;49.316;6.092;2023-02-13T16:11:27;101180.47;;;11.48;59.21
23953;BME280;12163;49.316;6.092;2023-02-13T16:16:21;101181.00;;;11.29;59.79